^^
Datos históricos de la estación: Murcia-Puente Tocinos
Diario Informe para Abril 10, 2019 Unidades:  Métrico    Ingés   Ambas
Diario Semanal Mensual Anual
  Máxima: Mínima: Promedio:
Temperatura: 38.1 °C 27.4 °C 32 °C
Punto de rocio: 22.1 °C 10.6 °C 16.7 °C
Humedad: 65% 26% 41%
Velocidad viento: 21.7km/h 0km/h 10.5km/h
Racha viento: 41.8km/h - -
Viento- - SSE
Presión: 1014.1 hPa 1011.4 hPa -
Precipitación: 0.0 mm    
 
 
Tabla de datos para Abril 10, 2019
Hora Temperatura Punto de rocio Presión Viento Velocidad viento Racha viento Humedad Intensidad lluvia(por hora) Nubes
00:04 29.4 °C 22.1 °C 1011.4 hPa NNE 3.2 km/h 8 km/h 65% 0.0 mm
00:09 29.4 °C 22.1 °C 1011.4 hPa NNE 3.1 km/h 6.9 km/h 65% 0.0 mm
00:14 29.4 °C 21.9 °C 1011.4 hPa NNO 2.2 km/h 8 km/h 64.2% 0.0 mm
00:19 29.3 °C 21.8 °C 1011.4 hPa NO 2.4 km/h 8 km/h 64% 0.0 mm
00:24 29.3 °C 21.8 °C 1011.4 hPa NO 3.2 km/h 5 km/h 64% 0.0 mm
00:29 29.3 °C 21.8 °C 1011.4 hPa NO 3.2 km/h 7.4 km/h 64% 0.0 mm
00:34 29.2 °C 21.4 °C 1011.5 hPa NO 2.9 km/h 8 km/h 63% 0.0 mm
00:39 29.2 °C 20.9 °C 1011.5 hPa NO 2.9 km/h 7.6 km/h 61.1% 0.0 mm
00:44 29.1 °C 20.8 °C 1011.5 hPa ONO 3.2 km/h 8 km/h 60.8% 0.0 mm
00:49 29.1 °C 20.6 °C 1011.6 hPa ONO 3.2 km/h 6.4 km/h 60.3% 0.0 mm
00:54 29 °C 20.4 °C 1011.6 hPa NO 2.9 km/h 4.8 km/h 60% 0.0 mm
00:59 28.9 °C 20.4 °C 1011.6 hPa NO 2.4 km/h 5.8 km/h 60.3% 0.0 mm
01:04 28.9 °C 21.3 °C 1011.6 hPa Calm   8.4 km/h 63.7% 0.0 mm
01:09 28.9 °C 21.4 °C 1011.6 hPa SSE 0.5 km/h 8 km/h 64.1% 0.0 mm
01:14 28.9 °C 21.7 °C 1011.6 hPa SSE 2.9 km/h 4.8 km/h 65% 0.0 mm
01:19 28.9 °C 21.2 °C 1011.6 hPa SSE 2.8 km/h 5.8 km/h 63.4% 0.0 mm
01:24 28.8 °C 21.4 °C 1011.6 hPa SSE 2.2 km/h 6.4 km/h 64.2% 0.0 mm
01:29 28.8 °C 20.7 °C 1011.6 hPa SO 2.3 km/h 6.4 km/h 61.8% 0.0 mm
01:34 28.8 °C 20.6 °C 1011.7 hPa SO 2.9 km/h 7.6 km/h 61% 0.0 mm
01:39 28.8 °C 20.5 °C 1011.7 hPa SO 2.9 km/h 9.3 km/h 61% 0.0 mm
01:44 28.7 °C 20.4 °C 1011.7 hPa SO 3.2 km/h 9.7 km/h 60.7% 0.0 mm
01:49 28.7 °C 20.3 °C 1011.7 hPa OSO 3.3 km/h 8 km/h 60.4% 0.0 mm
01:54 28.8 °C 20.2 °C 1011.5 hPa Oeste 3.9 km/h 8 km/h 59.9% 0.0 mm
01:59 28.8 °C 20.1 °C 1011.5 hPa SO 3.7 km/h 5.6 km/h 59.1% 0.0 mm
02:04 28.9 °C 19.9 °C 1011.5 hPa SO 2.9 km/h 4.8 km/h 58.3% 0.0 mm
02:09 28.9 °C 19.8 °C 1011.5 hPa SO 2.5 km/h 5 km/h 58.1% 0.0 mm
02:14 28.9 °C 17.9 °C 1011.5 hPa Calm   10 km/h 51.4% 0.0 mm
02:19 29 °C 17.3 °C 1011.6 hPa Sur 0.8 km/h 9.7 km/h 49.3% 0.0 mm
02:24 29.1 °C 17 °C 1011.6 hPa Sur 5.8 km/h 10.3 km/h 48.3% 0.0 mm
02:29 29 °C 16.5 °C 1011.6 hPa Sur 5.8 km/h 11.3 km/h 46.7% 0.0 mm
02:34 29.1 °C 16.1 °C 1011.6 hPa SSO 6.4 km/h 11.3 km/h 45.6% 0.0 mm
02:39 29.2 °C 15.9 °C 1011.6 hPa SO 6.5 km/h 9.7 km/h 44.8% 0.0 mm
02:44 29.2 °C 15.7 °C 1011.6 hPa SO 6.5 km/h 9.7 km/h 44.1% 0.0 mm
02:49 29.2 °C 15.7 °C 1011.6 hPa OSO 6.3 km/h 9.7 km/h 44% 0.0 mm
02:54 29.2 °C 15.7 °C 1011.5 hPa Oeste 5 km/h 8.4 km/h 44.1% 0.0 mm
02:59 29.2 °C 16 °C 1011.5 hPa Oeste 4.8 km/h 8 km/h 45% 0.0 mm
03:04 29 °C 16 °C 1011.5 hPa Oeste 3.9 km/h 6.4 km/h 45.4% 0.0 mm
03:09 28.8 °C 15.9 °C 1011.5 hPa Sur 3.8 km/h 9.5 km/h 45.5% 0.0 mm
03:14 28.6 °C 16.5 °C 1011.5 hPa ESE 3.2 km/h 9.7 km/h 47.8% 0.0 mm
03:19 28.3 °C 16.3 °C 1011.5 hPa ESE 3.3 km/h 8 km/h 48% 0.0 mm
03:24 28.2 °C 15.9 °C 1011.5 hPa ESE 3.9 km/h 5 km/h 47.3% 0.0 mm
03:29 28.1 °C 16.1 °C 1011.5 hPa ESE 3.7 km/h 5.6 km/h 48.2% 0.0 mm
03:34 28.1 °C 16.4 °C 1011.5 hPa ESE 2.9 km/h 3.9 km/h 49% 0.0 mm
03:39 28.1 °C 16.3 °C 1011.5 hPa ESE 2.9 km/h 5.6 km/h 48.9% 0.0 mm
03:44 27.9 °C 16.1 °C 1011.5 hPa ESE 2.9 km/h 4.8 km/h 48.6% 0.0 mm
03:49 27.8 °C 16.5 °C 1011.7 hPa ESE 2.8 km/h 5.8 km/h 50.1% 0.0 mm
03:54 27.7 °C 16.6 °C 1011.7 hPa ESE 2.2 km/h 6.4 km/h 50.7% 0.0 mm
03:59 27.7 °C 16.3 °C 1011.7 hPa ESE 2.4 km/h 7.4 km/h 49.8% 0.0 mm
04:04 27.7 °C 16.1 °C 1011.7 hPa SSE 2.9 km/h 10 km/h 49.3% 0.0 mm
04:09 27.8 °C 16.1 °C 1011.6 hPa SSE 3.2 km/h 9.7 km/h 49% 0.0 mm
04:14 27.8 °C 16.1 °C 1011.6 hPa SSE 5 km/h 8 km/h 49% 0.0 mm
04:19 27.8 °C 16.1 °C 1011.7 hPa SSE 4.9 km/h 8.4 km/h 49% 0.0 mm
04:24 27.7 °C 16 °C 1011.7 hPa SSE 4.7 km/h 8 km/h 49% 0.0 mm
04:29 27.5 °C 15.8 °C 1011.7 hPa SSE 4.7 km/h 8 km/h 49% 0.0 mm
04:34 27.4 °C 15.7 °C 1011.7 hPa Sur 4.7 km/h 8.7 km/h 49% 0.0 mm
04:39 27.6 °C 15.9 °C 1011.6 hPa SSO 4.9 km/h 11.9 km/h 48.8% 0.0 mm
04:44 27.8 °C 15.7 °C 1011.6 hPa SO 6.4 km/h 13 km/h 47.6% 0.0 mm
04:49 28.1 °C 15.5 °C 1011.6 hPa SO 6.5 km/h 12.9 km/h 46.3% 0.0 mm
04:54 28.3 °C 15.4 °C 1011.6 hPa OSO 6.9 km/h 11.3 km/h 45.7% 0.0 mm
04:59 28.3 °C 15 °C 1011.6 hPa SSO 6.8 km/h 18 km/h 44.3% 0.0 mm
05:04 28.5 °C 14.2 °C 1011.6 hPa SO 6.5 km/h 19.3 km/h 41.9% 0.0 mm
05:09 28.8 °C 13.9 °C 1011.6 hPa SO 6.7 km/h 16.1 km/h 40.2% 0.0 mm
05:14 28.9 °C 13.8 °C 1011.6 hPa OSO 8.4 km/h 11.3 km/h 39.6% 0.0 mm
05:19 29 °C 13.3 °C 1011.7 hPa SSO 8.2 km/h 13 km/h 38.1% 0.0 mm
05:24 29.1 °C 13.4 °C 1011.7 hPa OSO 6.9 km/h 12.9 km/h 38.1% 0.0 mm
05:29 29.1 °C 13.3 °C 1011.7 hPa SSO 6.5 km/h 8 km/h 38% 0.0 mm
05:34 29 °C 13.3 °C 1011.7 hPa SO 3.9 km/h 8 km/h 38.2% 0.0 mm
05:39 28.9 °C 13.5 °C 1011.7 hPa Oeste 3.7 km/h 8 km/h 38.8% 0.0 mm
05:44 28.8 °C 13.3 °C 1011.7 hPa OSO 2.9 km/h 8.4 km/h 38.6% 0.0 mm
05:49 28.7 °C 13.2 °C 1011.7 hPa SO 3 km/h 8 km/h 38.5% 0.0 mm
05:54 28.5 °C 12.7 °C 1011.7 hPa SO 3.9 km/h 8 km/h 37.7% 0.0 mm
05:59 28.6 °C 12.2 °C 1011.7 hPa SO 4.2 km/h 10.3 km/h 36.2% 0.0 mm
06:04 28.8 °C 11.7 °C 1011.9 hPa SO 5.8 km/h 11.3 km/h 34.8% 0.0 mm
06:09 29 °C 11.3 °C 1011.9 hPa SO 6 km/h 14 km/h 33.5% 0.0 mm
06:14 29.2 °C 11 °C 1011.9 hPa SO 7.6 km/h 14.8 km/h 32.5% 0.0 mm
06:19 29.3 °C 11 °C 1011.9 hPa SSO 7.7 km/h 14.5 km/h 32% 0.0 mm
06:24 29.4 °C 10.8 °C 1011.9 hPa SSO 8.4 km/h 19 km/h 31.6% 0.0 mm
06:29 29.5 °C 10.6 °C 1011.9 hPa SO 8.6 km/h 19.3 km/h 31% 0.0 mm
06:34 29.6 °C 10.8 °C 1012.0 hPa SO 10 km/h 16.1 km/h 31.3% 0.0 mm
06:39 29.6 °C 11 °C 1012.0 hPa SO 9.9 km/h 14.5 km/h 31.7% 0.0 mm
06:44 29.6 °C 10.9 °C 1012.0 hPa SO 9.5 km/h 14.8 km/h 31.5% 0.0 mm
06:49 29.5 °C 11.1 °C 1012.2 hPa SO 9.4 km/h 15.6 km/h 32% 0.0 mm
06:54 29.4 °C 11 °C 1012.2 hPa SSO 8.7 km/h 16.7 km/h 31.9% 0.0 mm
06:59 29.4 °C 10.9 °C 1012.2 hPa SSO 9 km/h 16.7 km/h 31.7% 0.0 mm
07:04 29.4 °C 11 °C 1012.3 hPa SSO 10 km/h 18 km/h 32% 0.0 mm
07:09 29.4 °C 11 °C 1012.3 hPa SSO 10.2 km/h 19.3 km/h 32% 0.0 mm
07:14 29.4 °C 11 °C 1012.3 hPa SSO 11.1 km/h 19.3 km/h 32% 0.0 mm
07:19 29.6 °C 11.1 °C 1012.7 hPa SSO 11 km/h 16.1 km/h 32% 0.0 mm
07:24 29.6 °C 11.2 °C 1012.7 hPa SSO 10.3 km/h 16.7 km/h 32% 0.0 mm
07:29 29.7 °C 11.6 °C 1012.7 hPa SO 10.4 km/h 18.5 km/h 33% 0.0 mm
07:34 29.7 °C 11.7 °C 1012.8 hPa SO 11.1 km/h 19.3 km/h 33% 0.0 mm
07:39 29.7 °C 11.7 °C 1012.8 hPa SSO 11.3 km/h 19.3 km/h 33% 0.0 mm
07:44 29.7 °C 12 °C 1012.8 hPa SO 12.2 km/h 19.3 km/h 33.8% 0.0 mm
07:49 29.6 °C 12.1 °C 1013.0 hPa SSO 12.4 km/h 19.3 km/h 34% 0.0 mm
07:54 29.6 °C 12.1 °C 1013.0 hPa SSO 13 km/h 24.1 km/h 34% 0.0 mm
07:59 29.6 °C 12.1 °C 1013.0 hPa SO 13.2 km/h 24.1 km/h 34% 0.0 mm
08:04 29.6 °C 12.4 °C 1013.2 hPa SSO 14 km/h 22.5 km/h 34.8% 0.0 mm
08:09 29.7 °C 12.6 °C 1013.2 hPa SSO 13.7 km/h 20.4 km/h 35% 0.0 mm
08:14 29.8 °C 12.6 °C 1013.2 hPa SSO 12.2 km/h 20.9 km/h 35% 0.0 mm
08:19 29.8 °C 12.7 °C 1013.3 hPa SSO 12.4 km/h 20.9 km/h 35% 0.0 mm
08:24 29.8 °C 12.9 °C 1013.3 hPa SSO 13.7 km/h 22.2 km/h 35.6% 0.0 mm
08:29 29.8 °C 13.1 °C 1013.3 hPa SSO 13.7 km/h 22.5 km/h 36% 0.0 mm
08:34 29.8 °C 13.1 °C 1013.5 hPa SSO 14 km/h 22.5 km/h 36% 0.0 mm
08:39 29.9 °C 13.6 °C 1013.5 hPa SSO 13.7 km/h 20.9 km/h 37% 0.0 mm
08:44 29.9 °C 13.7 °C 1013.5 hPa SSO 12.2 km/h 19.3 km/h 37% 0.0 mm
08:49 30 °C 13.8 °C 1013.6 hPa SSO 12.1 km/h 19.3 km/h 37.1% 0.0 mm
08:54 30.2 °C 14.3 °C 1013.6 hPa SSO 11.1 km/h 19.3 km/h 37.9% 0.0 mm
08:59 30.3 °C 14.4 °C 1013.6 hPa SO 11.1 km/h 19.3 km/h 38% 0.0 mm
09:04 30.3 °C 14.5 °C 1013.7 hPa SO 11.1 km/h 14.5 km/h 38% 0.0 mm
09:09 30.5 °C 14.6 °C 1013.7 hPa SSO 10.7 km/h 15.6 km/h 38% 0.0 mm
09:14 30.7 °C 14.7 °C 1013.7 hPa SO 8.4 km/h 16.1 km/h 38% 0.0 mm
09:19 30.8 °C 14.8 °C 1013.8 hPa SO 8.4 km/h 14.8 km/h 38% 0.0 mm
09:24 30.8 °C 14.8 °C 1013.8 hPa SO 8.7 km/h 17.2 km/h 38% 0.0 mm
09:29 30.9 °C 15 °C 1013.8 hPa SO 8.8 km/h 18.3 km/h 38% 0.0 mm
09:34 31 °C 15.1 °C 1013.8 hPa SO 9.5 km/h 19.3 km/h 38% 0.0 mm
09:39 31.1 °C 15.1 °C 1013.8 hPa SSO 9.5 km/h 16.1 km/h 38% 0.0 mm
09:44 31.3 °C 15.3 °C 1013.8 hPa SO 9.5 km/h 14.5 km/h 38.1% 0.0 mm
09:49 31.4 °C 15.4 °C 1013.9 hPa SO 9.3 km/h 13.7 km/h 38% 0.0 mm
09:54 31.6 °C 15.5 °C 1013.9 hPa SO 8.4 km/h 16.4 km/h 38% 0.0 mm
09:59 31.6 °C 15.6 °C 1013.9 hPa SO 8.6 km/h 16.7 km/h 38% 0.0 mm
10:04 31.7 °C 15.9 °C 1014.0 hPa SO 9.5 km/h 16.7 km/h 38.5% 0.0 mm
10:09 31.9 °C 16.2 °C 1014.0 hPa SO 9.5 km/h 16.1 km/h 39% 0.0 mm
10:14 32.2 °C 16.4 °C 1014.0 hPa SO 9.5 km/h 16.7 km/h 39% 0.0 mm
10:19 32.3 °C 16.6 °C 1014.0 hPa SO 9.5 km/h 16.1 km/h 39% 0.0 mm
10:24 32.5 °C 16.8 °C 1013.9 hPa Oeste 9.5 km/h 20.9 km/h 39% 0.0 mm
10:29 32.7 °C 17.2 °C 1013.9 hPa OSO 9.6 km/h 20.9 km/h 39.7% 0.0 mm
10:34 32.8 °C 17.4 °C 1014.0 hPa OSO 10.3 km/h 20.9 km/h 40% 0.0 mm
10:39 32.9 °C 17.5 °C 1014.0 hPa OSO 10.4 km/h 20.9 km/h 40% 0.0 mm
10:44 33 °C 17.6 °C 1014.0 hPa OSO 11.1 km/h 22.2 km/h 39.9% 0.0 mm
10:49 33.1 °C 17.5 °C 1014.1 hPa OSO 11.2 km/h 22.5 km/h 39.7% 0.0 mm
10:54 33.2 °C 17.7 °C 1014.1 hPa OSO 11.9 km/h 20.4 km/h 39.9% 0.0 mm
10:59 33.3 °C 17.5 °C 1014.1 hPa Oeste 12 km/h 20.9 km/h 39.1% 0.0 mm
11:04 33.5 °C 17.4 °C 1014.1 hPa ONO 12.2 km/h 20.9 km/h 38.5% 0.0 mm
11:09 33.6 °C 17.7 °C 1014.0 hPa Oeste 11.9 km/h 20.9 km/h 38.8% 0.0 mm
11:14 33.8 °C 17.6 °C 1014.0 hPa OSO 10 km/h 24.1 km/h 38.1% 0.0 mm
11:19 33.8 °C 17.5 °C 1014.0 hPa OSO 10.3 km/h 24.1 km/h 38% 0.0 mm
11:24 33.8 °C 17.5 °C 1014.0 hPa OSO 11.9 km/h 19.3 km/h 38% 0.0 mm
11:29 34 °C 17.6 °C 1014.0 hPa Oeste 11.8 km/h 19.3 km/h 37.8% 0.0 mm
11:34 34.1 °C 17.4 °C 1014.0 hPa Oeste 11.1 km/h 20.9 km/h 37.2% 0.0 mm
11:39 34.3 °C 17.2 °C 1013.9 hPa OSO 11 km/h 20.9 km/h 36.3% 0.0 mm
11:44 34.4 °C 17.1 °C 1013.9 hPa OSO 10.3 km/h 22.2 km/h 35.8% 0.0 mm
11:49 34.5 °C 17.2 °C 1013.9 hPa OSO 10.6 km/h 22.5 km/h 36% 0.0 mm
11:54 34.5 °C 17.3 °C 1013.9 hPa Oeste 12.2 km/h 19.3 km/h 36% 0.0 mm
11:59 34.8 °C 17.1 °C 1013.9 hPa Oeste 11.6 km/h 19 km/h 35% 0.0 mm
12:04 34.9 °C 17.1 °C 1013.9 hPa ONO 8.7 km/h 21.7 km/h 35% 0.0 mm
12:09 35 °C 16.9 °C 1013.8 hPa Oeste 8.9 km/h 22.5 km/h 34.2% 0.0 mm
12:14 35.1 °C 16.9 °C 1013.8 hPa Oeste 10.3 km/h 22.5 km/h 34% 0.0 mm
12:19 35.2 °C 16.9 °C 1013.8 hPa Oeste 10.2 km/h 19.3 km/h 33.9% 0.0 mm
12:24 35.3 °C 16.7 °C 1013.6 hPa Oeste 9.5 km/h 17.2 km/h 33.2% 0.0 mm
12:29 35.5 °C 16.7 °C 1013.6 hPa OSO 9.5 km/h 22.5 km/h 32.9% 0.0 mm
12:34 35.7 °C 16.5 °C 1013.7 hPa OSO 9.5 km/h 22.5 km/h 32.3% 0.0 mm
12:39 35.6 °C 16.4 °C 1013.7 hPa OSO 9.9 km/h 22.5 km/h 32% 0.0 mm
12:44 35.6 °C 16.4 °C 1013.7 hPa Oeste 11.9 km/h 20.9 km/h 32.1% 0.0 mm
12:49 35.7 °C 16.5 °C 1013.7 hPa OSO 11.5 km/h 17.7 km/h 32% 0.0 mm
12:54 35.9 °C 16.3 °C 1013.4 hPa OSO 9.5 km/h 17.7 km/h 31.3% 0.0 mm
12:59 36 °C 15.7 °C 1013.4 hPa SSO 9.6 km/h 16.7 km/h 30.1% 0.0 mm
13:04 36.1 °C 15.5 °C 1013.4 hPa SO 10 km/h 16.1 km/h 29.5% 0.0 mm
13:09 36.2 °C 15.4 °C 1013.3 hPa SO 9.6 km/h 14.5 km/h 29.1% 0.0 mm
13:14 36.3 °C 15.2 °C 1013.3 hPa OSO 7.6 km/h 13.7 km/h 28.4% 0.0 mm
13:19 36.5 °C 15 °C 1013.3 hPa SSO 7.4 km/h 14.5 km/h 28% 0.0 mm
13:24 36.6 °C 14.9 °C 1013.1 hPa SSE 6.5 km/h 11.3 km/h 27.6% 0.0 mm
13:29 36.7 °C 15.2 °C 1013.1 hPa SE 6.2 km/h 11.3 km/h 28% 0.0 mm
13:34 37 °C 15.4 °C 1013.2 hPa NO 5 km/h 14 km/h 27.9% 0.0 mm
13:39 37.1 °C 14.9 °C 1013.2 hPa NNO 5.3 km/h 14.8 km/h 26.9% 0.0 mm
13:44 37.1 °C 14.5 °C 1013.2 hPa NNO 6.9 km/h 13 km/h 26.1% 0.0 mm
13:49 37.2 °C 14.5 °C 1013.2 hPa NNE 6.9 km/h 13 km/h 26% 0.0 mm
13:54 37.2 °C 14.5 °C 1013.0 hPa SE 6.9 km/h 12.9 km/h 26% 0.0 mm
13:59 37.3 °C 14.6 °C 1013.0 hPa Sur 6.7 km/h 11.3 km/h 26% 0.0 mm
14:04 37.6 °C 14.8 °C 1013.0 hPa NE 5.8 km/h 15.6 km/h 26% 0.0 mm
14:09 37.7 °C 14.9 °C 1012.8 hPa NE 6.3 km/h 16.1 km/h 26% 0.0 mm
14:14 37.7 °C 14.9 °C 1012.8 hPa NNE 8.7 km/h 16.1 km/h 26% 0.0 mm
14:19 38 °C 15.3 °C 1012.8 hPa NNE 8.2 km/h 20.1 km/h 26.2% 0.0 mm
14:24 38.1 °C 17 °C 1012.6 hPa ENE 5.8 km/h 29.8 km/h 29.2% 0.0 mm
14:29 37.7 °C 17.3 °C 1012.6 hPa ENE 7.2 km/h 31.7 km/h 30.3% 0.0 mm
14:34 37.2 °C 17.4 °C 1012.6 hPa ENE 15.6 km/h 32.2 km/h 31.4% 0.0 mm
14:39 37 °C 17.6 °C 1012.5 hPa ENE 15.8 km/h 33.3 km/h 32% 0.0 mm
14:44 37.1 °C 17.7 °C 1012.5 hPa ENE 17.2 km/h 33.8 km/h 32% 0.0 mm
14:49 37.1 °C 17.7 °C 1012.5 hPa ENE 16.7 km/h 27.8 km/h 32% 0.0 mm
14:54 37.2 °C 18.2 °C 1012.4 hPa ENE 13.7 km/h 33.5 km/h 33% 0.0 mm
14:59 36.9 °C 18.4 °C 1012.4 hPa ENE 14.6 km/h 33.8 km/h 34% 0.0 mm
15:04 36.7 °C 18.5 °C 1012.5 hPa ENE 18.3 km/h 32.3 km/h 34.6% 0.0 mm
15:09 36.4 °C 18.5 °C 1012.5 hPa NE 18.4 km/h 38.9 km/h 35% 0.0 mm
15:14 36.2 °C 18.6 °C 1012.5 hPa NE 19 km/h 38.6 km/h 35.6% 0.0 mm
15:19 36.2 °C 18.7 °C 1012.5 hPa ENE 18.7 km/h 35.4 km/h 36% 0.0 mm
15:24 36.3 °C 18.8 °C 1012.5 hPa ENE 17.2 km/h 30.6 km/h 36% 0.0 mm
15:29 36 °C 18.9 °C 1012.5 hPa ENE 17.3 km/h 31.7 km/h 36.5% 0.0 mm
15:34 36.1 °C 19 °C 1012.5 hPa ENE 18 km/h 32.2 km/h 36.9% 0.0 mm
15:39 36.1 °C 19.1 °C 1012.4 hPa ENE 17.6 km/h 28.2 km/h 37% 0.0 mm
15:44 36.1 °C 19.1 °C 1012.4 hPa NE 14.8 km/h 27.8 km/h 37.2% 0.0 mm
15:49 35.8 °C 18.9 °C 1012.4 hPa NE 15 km/h 28.2 km/h 37% 0.0 mm
15:54 35.8 °C 18.9 °C 1012.4 hPa NE 16.1 km/h 29.6 km/h 37% 0.0 mm
15:59 35.6 °C 18.9 °C 1012.4 hPa ENE 16.6 km/h 29.8 km/h 37.6% 0.0 mm
16:04 35.4 °C 18.9 °C 1012.4 hPa NE 19 km/h 30.6 km/h 38.1% 0.0 mm
16:09 35.3 °C 19 °C 1012.4 hPa NE 19.2 km/h 35.2 km/h 38.4% 0.0 mm
16:14 35.2 °C 19.1 °C 1012.4 hPa NE 20.1 km/h 35.4 km/h 38.7% 0.0 mm
16:19 35.3 °C 18.9 °C 1012.4 hPa NE 19.8 km/h 33.8 km/h 38.3% 0.0 mm
16:24 35.3 °C 19.1 °C 1012.4 hPa NE 18.4 km/h 35.2 km/h 38.7% 0.0 mm
16:29 35.1 °C 18.8 °C 1012.4 hPa NE 18.8 km/h 41.2 km/h 38.3% 0.0 mm
16:34 34.8 °C 18.6 °C 1012.4 hPa NE 20.9 km/h 41.8 km/h 38.6% 0.0 mm
16:39 34.8 °C 18.7 °C 1012.3 hPa NE 20.6 km/h 32.8 km/h 38.9% 0.0 mm
16:44 34.8 °C 18.6 °C 1012.3 hPa NE 19 km/h 33.8 km/h 38.6% 0.0 mm
16:49 34.7 °C 18.7 °C 1012.3 hPa NE 19.3 km/h 33.8 km/h 39% 0.0 mm
16:54 34.6 °C 18.5 °C 1012.3 hPa NE 20.9 km/h 36.2 km/h 38.7% 0.0 mm
16:59 34.6 °C 18.4 °C 1012.3 hPa ENE 21.1 km/h 37 km/h 38.4% 0.0 mm
17:04 34.5 °C 18.3 °C 1012.3 hPa NE 21.7 km/h 35.9 km/h 38.5% 0.0 mm
17:09 34.5 °C 18.2 °C 1012.1 hPa NE 21.6 km/h 35.4 km/h 38.2% 0.0 mm
17:14 34.5 °C 18.1 °C 1012.1 hPa NE 20.9 km/h 35.4 km/h 38% 0.0 mm
17:19 34.5 °C 18.1 °C 1012.1 hPa NE 20.8 km/h 29.6 km/h 37.9% 0.0 mm
17:24 34.6 °C 18.1 °C 1012.0 hPa NE 19.8 km/h 29.8 km/h 37.8% 0.0 mm
17:29 34.6 °C 18.2 °C 1012.0 hPa NE 19.3 km/h 30.6 km/h 38% 0.0 mm
17:34 34.5 °C 18 °C 1012.0 hPa NE 16.4 km/h 38.9 km/h 37.8% 0.0 mm
17:39 34.4 °C 18.1 °C 1012.0 hPa NE 16.8 km/h 38.6 km/h 38% 0.0 mm
17:44 34.6 °C 18.2 °C 1012.0 hPa NE 19 km/h 30.9 km/h 38% 0.0 mm
17:49 34.5 °C 18.1 °C 1012.0 hPa NE 19 km/h 32.2 km/h 38% 0.0 mm
17:54 34.4 °C 18.1 °C 1011.9 hPa NE 19 km/h 32.2 km/h 38.1% 0.0 mm
17:59 34.5 °C 18.3 °C 1011.9 hPa NE 18.7 km/h 30.6 km/h 38.4% 0.0 mm
18:04 34.4 °C 18.4 °C 1011.9 hPa NE 17.2 km/h 29 km/h 38.9% 0.0 mm
18:09 34.3 °C 18.3 °C 1011.9 hPa NE 17.1 km/h 31.5 km/h 38.8% 0.0 mm
18:14 34.2 °C 18.3 °C 1011.9 hPa NE 16.4 km/h 32.2 km/h 39.1% 0.0 mm
18:19 34.2 °C 18.3 °C 1011.9 hPa NE 16.3 km/h 25.9 km/h 39.1% 0.0 mm
18:24 34.2 °C 18.3 °C 1011.9 hPa ENE 15.6 km/h 27.8 km/h 39% 0.0 mm
18:29 34.2 °C 18.3 °C 1011.9 hPa ENE 15.3 km/h 27.4 km/h 39% 0.0 mm
18:34 34.2 °C 18.4 °C 1011.9 hPa NE 14 km/h 25.9 km/h 39.3% 0.0 mm
18:39 34.1 °C 18.5 °C 1011.8 hPa NE 14.5 km/h 25.9 km/h 40% 0.0 mm
18:44 34.1 °C 18.5 °C 1011.8 hPa NE 17.2 km/h 25.9 km/h 40% 0.0 mm
18:49 34.1 °C 18.5 °C 1011.8 hPa NE 17 km/h 25.7 km/h 40% 0.0 mm
18:54 34.2 °C 18.4 °C 1011.7 hPa NE 15.6 km/h 27.8 km/h 39.3% 0.0 mm
18:59 34.1 °C 18.2 °C 1011.7 hPa ENE 15.6 km/h 27.4 km/h 39.1% 0.0 mm
19:04 34.1 °C 18.3 °C 1011.7 hPa NE 15.6 km/h 25.9 km/h 39.5% 0.0 mm
19:09 34 °C 18.2 °C 1011.6 hPa NE 15.6 km/h 25.7 km/h 39.1% 0.0 mm
19:14 34 °C 18.2 °C 1011.6 hPa NE 15.6 km/h 27.8 km/h 39.2% 0.0 mm
19:19 33.9 °C 18.3 °C 1011.6 hPa NE 15.6 km/h 27.4 km/h 39.7% 0.0 mm
19:24 33.8 °C 18.4 °C 1011.6 hPa NE 15.6 km/h 25.9 km/h 40% 0.0 mm
19:29 33.8 °C 18.3 °C 1011.6 hPa NE 15.7 km/h 25.7 km/h 40% 0.0 mm
19:34 33.7 °C 18.6 °C 1011.6 hPa NE 16.1 km/h 25.9 km/h 40.9% 0.0 mm
19:39 33.6 °C 18.6 °C 1011.6 hPa NE 15.9 km/h 25.7 km/h 41.2% 0.0 mm
19:44 33.6 °C 18.9 °C 1011.6 hPa NE 14.8 km/h 24.5 km/h 42% 0.0 mm
19:49 33.4 °C 18.9 °C 1011.6 hPa NE 14.7 km/h 24.1 km/h 42.5% 0.0 mm
19:54 33.3 °C 19.1 °C 1011.6 hPa NE 14 km/h 22.5 km/h 43.3% 0.0 mm
19:59 33.2 °C 19.3 °C 1011.6 hPa NE 14 km/h 23.3 km/h 44% 0.0 mm
20:04 33 °C 19.2 °C 1011.6 hPa NE 14 km/h 27.8 km/h 44.3% 0.0 mm
20:09 32.7 °C 19.6 °C 1011.6 hPa NE 14.5 km/h 27.4 km/h 46% 0.0 mm
20:14 32.4 °C 19.8 °C 1011.6 hPa NE 17.2 km/h 27.4 km/h 47.3% 0.0 mm
20:19 32.2 °C 19.9 °C 1011.8 hPa NE 17.2 km/h 29.6 km/h 48.6% 0.0 mm
20:24 31.8 °C 20.1 °C 1011.8 hPa NE 17.2 km/h 29 km/h 49.8% 0.0 mm
20:29 31.7 °C 20 °C 1011.8 hPa NE 17.2 km/h 25.9 km/h 50% 0.0 mm
20:34 31.5 °C 19.8 °C 1011.9 hPa NE 17.2 km/h 25.7 km/h 50% 0.0 mm
20:39 31.3 °C 19.7 °C 1011.9 hPa NE 17 km/h 25.9 km/h 50% 0.0 mm
20:44 31.2 °C 19.4 °C 1011.9 hPa NNE 16.1 km/h 25.9 km/h 49.8% 0.0 mm
20:49 31 °C 19 °C 1012.0 hPa NE 16.1 km/h 25.7 km/h 49% 0.0 mm
20:54 30.9 °C 18.7 °C 1012.0 hPa NE 16.4 km/h 22.5 km/h 48.3% 0.0 mm
20:59 30.9 °C 18.5 °C 1012.0 hPa NE 15.9 km/h 22.5 km/h 47.6% 0.0 mm
21:04 30.9 °C 18.3 °C 1012.0 hPa NE 13.7 km/h 22.5 km/h 47% 0.0 mm
21:09 30.8 °C 18.2 °C 1012.0 hPa NE 13.4 km/h 19.8 km/h 47% 0.0 mm
21:14 30.8 °C 17.9 °C 1012.0 hPa NE 11.9 km/h 20.9 km/h 46.3% 0.0 mm
21:19 30.7 °C 18.1 °C 1012.1 hPa NNE 12.1 km/h 20.9 km/h 47% 0.0 mm
21:24 30.6 °C 18 °C 1012.1 hPa NE 13 km/h 19.8 km/h 47% 0.0 mm
21:29 30.5 °C 18 °C 1012.1 hPa NE 12.9 km/h 20.9 km/h 47.4% 0.0 mm
21:34 30.4 °C 18.4 °C 1012.1 hPa NE 11.9 km/h 20.4 km/h 48.7% 0.0 mm
21:38 30.3 °C 19 °C 1012.1 hPa NE 11.9 km/h 22.2 km/h 51% 0.0 mm
Murcia-Puente Tocinos, Espa?a
Compliments of Weather Underground - 3 mb

La estación de MeteoMurcia.com, publica sus datos en los siguientes proyectos:

Weather Underground PWS IMURCIAP2 Meteoclimatic www.awekas.at

Web Analytics

Clicky